createdAt,value
2023-05-21T00:02:20.976Z,3.53
2023-05-21T00:04:47.722Z,3.77
2023-05-21T00:07:15.396Z,4.10
2023-05-21T00:09:42.090Z,3.27
2023-05-21T00:12:09.308Z,4.07
2023-05-21T00:14:36.320Z,4.17
2023-05-21T00:17:02.862Z,4.37
2023-05-21T00:19:29.395Z,4.70
2023-05-21T00:21:56.069Z,5.47
2023-05-21T00:24:22.584Z,4.37
2023-05-21T00:26:49.017Z,3.97
2023-05-21T00:29:15.657Z,3.87
2023-05-21T00:31:42.205Z,4.10
2023-05-21T00:34:08.743Z,4.07
2023-05-21T00:36:35.552Z,4.07
2023-05-21T00:39:02.493Z,4.37
2023-05-21T00:41:30.204Z,3.90
2023-05-21T00:43:57.195Z,4.27
2023-05-21T00:46:24.253Z,4.27
2023-05-21T00:48:51.219Z,4.23
2023-05-21T00:51:18.542Z,4.27
2023-05-21T00:53:46.629Z,4.20
2023-05-21T00:56:13.600Z,3.97
2023-05-21T00:58:40.948Z,4.07
2023-05-21T01:01:13.494Z,4.57
2023-05-21T01:03:41.043Z,5.28
2023-05-21T01:06:09.621Z,4.80
2023-05-21T01:08:37.587Z,5.20
2023-05-21T01:11:05.741Z,4.50
2023-05-21T01:13:34.549Z,4.10
2023-05-21T01:16:01.956Z,5.07
2023-05-21T01:18:29.727Z,4.10
2023-05-21T01:20:56.234Z,3.90
2023-05-21T01:23:22.938Z,4.80
2023-05-21T01:25:49.355Z,4.10
2023-05-21T01:28:15.965Z,5.30
2023-05-21T01:30:43.655Z,4.47
2023-05-21T01:33:18.388Z,4.17
2023-05-21T01:35:57.424Z,5.10
2023-05-21T01:38:57.400Z,5.17
2023-05-21T01:41:27.080Z,3.50
2023-05-21T01:43:56.545Z,4.47
2023-05-21T01:46:27.370Z,4.73
2023-05-21T01:48:56.166Z,4.83
2023-05-21T01:51:23.918Z,4.60
2023-05-21T01:53:50.551Z,5.90
2023-05-21T01:56:16.991Z,4.83
2023-05-21T01:58:44.024Z,4.77
2023-05-21T02:01:11.789Z,4.90
2023-05-21T02:03:38.679Z,4.23
2023-05-21T02:06:05.445Z,5.07
2023-05-21T02:08:31.895Z,4.33
2023-05-21T02:10:58.394Z,4.30
2023-05-21T02:13:26.615Z,5.10
2023-05-21T02:15:54.765Z,4.40
2023-05-21T02:18:21.879Z,5.10
2023-05-21T02:20:48.392Z,5.57
2023-05-21T02:23:14.962Z,5.10
2023-05-21T02:25:41.501Z,5.37
2023-05-21T02:28:07.939Z,4.60
2023-05-21T02:30:34.767Z,5.10
2023-05-21T02:33:02.842Z,4.80
2023-05-21T02:35:29.540Z,3.93
2023-05-21T02:37:59.231Z,5.20
2023-05-21T02:40:26.143Z,4.73
2023-05-21T02:42:52.561Z,4.83
2023-05-21T02:45:19.096Z,5.10
2023-05-21T02:47:45.630Z,5.57
2023-05-21T02:50:14.046Z,6.78
2023-05-21T02:52:41.575Z,4.27
2023-05-21T02:55:09.885Z,4.57
2023-05-21T02:57:36.341Z,5.00
2023-05-21T03:00:03.822Z,4.77
2023-05-21T03:02:30.513Z,5.40
2023-05-21T03:04:56.986Z,5.43
2023-05-21T03:07:24.370Z,5.53
2023-05-21T03:09:50.821Z,4.10
2023-05-21T03:12:17.328Z,6.20
2023-05-21T03:14:44.194Z,5.37
2023-05-21T03:17:13.912Z,5.33
2023-05-21T03:19:41.627Z,5.07
2023-05-21T03:22:08.087Z,5.57
2023-05-21T03:24:35.323Z,5.93
2023-05-21T03:27:02.254Z,5.57
2023-05-21T03:29:29.085Z,4.40
2023-05-21T03:31:56.067Z,4.60
2023-05-21T03:34:23.198Z,4.50
2023-05-21T03:36:50.653Z,4.97
2023-05-21T03:39:17.374Z,4.70
2023-05-21T03:41:43.901Z,4.93
2023-05-21T03:44:10.426Z,5.10
2023-05-21T03:46:36.971Z,5.37
2023-05-21T03:49:03.474Z,5.30
2023-05-21T03:51:31.738Z,5.37
2023-05-21T03:53:59.405Z,5.70
2023-05-21T03:56:26.309Z,4.83
2023-05-21T03:58:53.157Z,4.83
2023-05-21T04:01:19.985Z,6.55
2023-05-21T04:03:46.932Z,5.50
2023-05-21T04:06:13.654Z,5.70
2023-05-21T04:08:40.132Z,4.53
2023-05-21T04:11:06.696Z,5.20
2023-05-21T04:13:33.156Z,5.50
2023-05-21T04:15:59.841Z,5.00
2023-05-21T04:18:26.749Z,5.20
2023-05-21T04:20:53.878Z,4.57
2023-05-21T04:23:23.617Z,5.47
2023-05-21T04:25:50.797Z,5.57
2023-05-21T04:28:21.070Z,4.83
2023-05-21T04:30:47.896Z,5.00
2023-05-21T04:33:18.245Z,6.27
2023-05-21T04:35:49.937Z,5.43
2023-05-21T04:38:20.322Z,4.83
2023-05-21T04:40:51.039Z,5.37
2023-05-21T04:43:17.869Z,4.83
2023-05-21T04:45:44.373Z,5.77
2023-05-21T04:48:10.822Z,4.50
2023-05-21T04:50:37.328Z,6.27
2023-05-21T04:53:03.737Z,5.47
2023-05-21T04:55:30.229Z,5.57
2023-05-21T04:57:57.382Z,5.57
2023-05-21T05:00:26.073Z,4.93
2023-05-21T05:02:52.680Z,5.87
2023-05-21T05:05:19.273Z,5.47
2023-05-21T05:07:45.749Z,4.77
2023-05-21T05:10:12.222Z,5.37
2023-05-21T05:12:38.730Z,5.23
2023-05-21T05:15:05.877Z,5.17
2023-05-21T05:17:32.368Z,5.50
2023-05-21T05:19:58.836Z,5.83
2023-05-21T05:22:25.341Z,5.10
2023-05-21T05:24:51.794Z,4.80
2023-05-21T05:27:18.464Z,4.63
2023-05-21T05:29:45.604Z,5.10
2023-05-21T05:32:12.097Z,5.13
2023-05-21T05:34:38.864Z,5.70
2023-05-21T05:37:05.429Z,5.20
2023-05-21T05:39:31.944Z,6.40
2023-05-21T05:41:58.433Z,5.33
2023-05-21T05:44:24.981Z,5.27
2023-05-21T05:46:51.427Z,5.37
2023-05-21T05:49:17.929Z,4.60
2023-05-21T05:51:44.806Z,6.40
2023-05-21T05:54:11.255Z,5.20
2023-05-21T05:56:37.771Z,5.37
2023-05-21T05:59:04.260Z,5.50
2023-05-21T06:01:31.993Z,4.83
2023-05-21T06:03:58.589Z,6.17
2023-05-21T06:06:24.999Z,5.13
2023-05-21T06:08:51.500Z,4.87
2023-05-21T06:11:20.671Z,4.27
2023-05-21T06:13:47.177Z,4.60
2023-05-21T06:16:13.895Z,4.50
2023-05-21T06:18:40.432Z,4.90
2023-05-21T06:21:06.897Z,4.83
2023-05-21T06:23:35.430Z,4.27
2023-05-21T06:26:01.965Z,5.27
2023-05-21T06:28:28.438Z,5.40
2023-05-21T06:30:54.970Z,4.40
2023-05-21T06:33:21.617Z,5.13
2023-05-21T06:35:48.204Z,4.47
2023-05-21T06:38:14.698Z,6.00
2023-05-21T06:40:41.188Z,5.53
2023-05-21T06:43:07.688Z,5.30
2023-05-21T06:45:34.346Z,4.73
2023-05-21T06:48:01.047Z,6.00
2023-05-21T06:50:27.758Z,5.37
2023-05-21T06:52:54.302Z,5.87
2023-05-21T06:55:21.257Z,5.07
2023-05-21T06:57:47.696Z,4.70
2023-05-21T07:00:14.377Z,4.53
2023-05-21T07:02:40.919Z,5.23
2023-05-21T07:05:08.148Z,4.80
2023-05-21T07:07:34.943Z,5.33
2023-05-21T07:10:01.488Z,5.23
2023-05-21T07:12:27.988Z,4.53
2023-05-21T07:14:54.468Z,5.33
2023-05-21T07:17:21.000Z,4.80
2023-05-21T07:19:47.508Z,3.93
2023-05-21T07:22:14.466Z,5.10
2023-05-21T07:24:40.977Z,5.87
2023-05-21T07:27:14.519Z,4.07
2023-05-21T07:29:52.028Z,4.77
2023-05-21T07:32:18.644Z,4.47
2023-05-21T07:34:45.154Z,5.20
2023-05-21T07:37:11.729Z,5.40
2023-05-21T07:39:38.221Z,4.23
2023-05-21T07:42:05.090Z,4.87
2023-05-21T07:44:31.940Z,5.13
2023-05-21T07:46:58.383Z,4.30
2023-05-21T07:49:24.818Z,5.43
2023-05-21T07:51:51.626Z,5.37
2023-05-21T07:54:19.767Z,4.37
2023-05-21T07:56:46.351Z,5.70
2023-05-21T07:59:14.599Z,4.47
2023-05-21T08:01:41.970Z,4.83
2023-05-21T08:04:08.658Z,4.70
2023-05-21T08:06:35.312Z,4.63
2023-05-21T08:09:02.015Z,4.37
2023-05-21T08:11:28.610Z,4.47
2023-05-21T08:13:55.517Z,4.73
2023-05-21T08:16:23.483Z,4.17
2023-05-21T08:18:50.799Z,3.77
2023-05-21T08:21:17.458Z,4.53
2023-05-21T08:23:44.340Z,4.23
2023-05-21T08:26:10.832Z,4.43
2023-05-21T08:28:40.548Z,3.87
2023-05-21T08:31:06.975Z,5.00
2023-05-21T08:33:37.488Z,4.23
2023-05-21T08:36:05.849Z,3.90
2023-05-21T08:38:32.641Z,4.40
2023-05-21T08:41:00.167Z,4.13
2023-05-21T08:43:28.227Z,3.90
2023-05-21T08:45:57.293Z,4.07
2023-05-21T08:48:24.676Z,3.83
2023-05-21T08:50:54.794Z,3.17
2023-05-21T08:53:28.166Z,4.40
2023-05-21T08:55:57.303Z,4.20
2023-05-21T08:58:24.155Z,3.97
2023-05-21T09:00:51.052Z,4.10
2023-05-21T09:03:17.802Z,4.43
2023-05-21T09:05:45.757Z,3.67
2023-05-21T09:08:19.410Z,4.27
2023-05-21T09:10:52.067Z,3.50
2023-05-21T09:13:20.002Z,3.67
2023-05-21T09:15:47.282Z,3.97
2023-05-21T09:18:14.708Z,3.43
2023-05-21T09:20:41.582Z,3.93
2023-05-21T09:23:16.470Z,4.00
2023-05-21T09:25:47.669Z,4.10
2023-05-21T09:28:16.064Z,3.83
2023-05-21T09:30:52.225Z,4.67
2023-05-21T09:33:31.745Z,4.20
2023-05-21T09:35:58.317Z,4.23
2023-05-21T09:38:25.958Z,3.80
2023-05-21T09:40:56.713Z,4.00
2023-05-21T09:43:23.348Z,3.93
2023-05-21T09:45:58.314Z,3.47
2023-05-21T09:48:52.321Z,3.17
2023-05-21T09:51:21.258Z,3.40
2023-05-21T09:53:54.467Z,4.57
2023-05-21T09:56:26.035Z,3.20
2023-05-21T09:58:54.866Z,3.63
2023-05-21T10:01:21.693Z,4.20
2023-05-21T10:03:53.940Z,4.47
2023-05-21T10:06:21.586Z,3.50
2023-05-21T10:08:51.953Z,3.20
2023-05-21T10:11:22.747Z,3.37
2023-05-21T10:13:57.797Z,3.10
2023-05-21T10:16:24.769Z,3.87
2023-05-21T10:18:54.162Z,2.80
2023-05-21T10:21:22.833Z,3.33
2023-05-21T10:23:51.309Z,3.60
2023-05-21T10:26:19.775Z,3.07
2023-05-21T10:28:46.682Z,3.30
2023-05-21T10:31:13.640Z,3.63
2023-05-21T10:33:42.414Z,4.00
2023-05-21T10:36:09.271Z,3.23
2023-05-21T10:38:38.533Z,2.77
2023-05-21T10:41:07.225Z,3.00
2023-05-21T10:44:02.746Z,3.37
2023-05-21T10:47:05.634Z,3.23
2023-05-21T10:50:12.859Z,2.80
2023-05-21T10:52:57.943Z,2.93
2023-05-21T10:55:51.142Z,2.63
2023-05-21T10:58:42.622Z,3.17
2023-05-21T11:01:10.963Z,2.97
2023-05-21T11:03:38.259Z,3.07
2023-05-21T11:06:08.492Z,2.93
2023-05-21T11:08:35.731Z,3.07
2023-05-21T11:11:03.249Z,3.40
2023-05-21T11:13:48.668Z,2.97
2023-05-21T11:16:16.773Z,3.97
2023-05-21T11:18:44.899Z,2.73
2023-05-21T11:21:15.327Z,2.97
2023-05-21T11:23:50.973Z,3.13
2023-05-21T11:26:22.610Z,3.00
2023-05-21T11:29:04.363Z,3.50
2023-05-21T11:31:41.402Z,3.07
2023-05-21T11:34:14.651Z,3.03
2023-05-21T11:36:44.558Z,2.93
2023-05-21T11:39:17.756Z,2.50
2023-05-21T11:42:04.485Z,2.80
2023-05-21T11:44:39.116Z,2.37
2023-05-21T11:47:06.882Z,3.00
2023-05-21T11:49:34.169Z,2.67
2023-05-21T11:52:01.668Z,3.60
2023-05-21T11:54:34.182Z,2.90
2023-05-21T11:57:01.813Z,2.43
2023-05-21T11:59:28.371Z,2.90
2023-05-21T12:01:59.247Z,2.30
2023-05-21T12:04:36.426Z,2.97
2023-05-21T12:07:09.715Z,2.50
2023-05-21T12:09:47.458Z,2.33
2023-05-21T12:12:19.145Z,3.10
2023-05-21T12:14:47.869Z,3.00
2023-05-21T12:17:28.057Z,3.00
2023-05-21T12:19:56.723Z,2.67
2023-05-21T12:22:24.696Z,2.93
2023-05-21T12:24:51.441Z,2.60
2023-05-21T12:27:18.265Z,2.80
2023-05-21T12:29:46.570Z,2.50
2023-05-21T12:32:15.879Z,2.83
2023-05-21T12:34:46.328Z,2.67
2023-05-21T12:37:21.965Z,2.63
2023-05-21T12:39:50.325Z,2.80
2023-05-21T12:42:23.445Z,2.90
2023-05-21T12:44:52.643Z,2.47
2023-05-21T12:47:19.298Z,2.77
2023-05-21T12:49:49.110Z,2.00
2023-05-21T12:52:19.090Z,2.43
2023-05-21T12:54:49.804Z,2.13
2023-05-21T12:57:17.429Z,2.10
2023-05-21T12:59:48.741Z,2.60
2023-05-21T13:02:40.252Z,2.73
2023-05-21T13:05:08.845Z,1.90
2023-05-21T13:07:37.612Z,2.13
2023-05-21T13:10:05.462Z,2.20
2023-05-21T13:12:33.436Z,1.93
2023-05-21T13:15:02.175Z,2.00
2023-05-21T13:17:29.443Z,2.10
2023-05-21T13:20:15.276Z,2.30
2023-05-21T13:22:46.404Z,1.90
2023-05-21T13:25:15.809Z,2.07
2023-05-21T13:27:42.896Z,1.77
2023-05-21T13:30:11.333Z,2.20
2023-05-21T13:32:38.883Z,2.30
2023-05-21T13:35:05.934Z,2.63
2023-05-21T13:37:36.186Z,2.00
2023-05-21T13:40:06.855Z,1.90
2023-05-21T13:42:34.625Z,2.00
2023-05-21T13:45:01.222Z,2.00
2023-05-21T13:47:27.832Z,2.43
2023-05-21T13:49:54.312Z,2.47
2023-05-21T13:52:21.537Z,2.00
2023-05-21T13:54:48.072Z,2.00
2023-05-21T13:57:15.097Z,2.33
2023-05-21T13:59:41.704Z,2.00
2023-05-21T14:02:09.122Z,2.23
2023-05-21T14:04:37.850Z,2.00
2023-05-21T14:07:06.496Z,2.50
2023-05-21T14:09:33.498Z,1.83
2023-05-21T14:11:59.953Z,1.57
2023-05-21T14:14:26.761Z,2.07
2023-05-21T14:16:53.342Z,2.00
2023-05-21T14:19:19.989Z,1.73
2023-05-21T14:21:46.445Z,1.40
2023-05-21T14:24:15.934Z,1.63
2023-05-21T14:26:43.870Z,1.60
2023-05-21T14:29:10.584Z,1.80
2023-05-21T14:31:37.832Z,1.70
2023-05-21T14:34:05.131Z,1.80
2023-05-21T14:36:32.497Z,1.93
2023-05-21T14:38:59.196Z,1.50
2023-05-21T14:41:26.980Z,1.67
2023-05-21T14:43:53.864Z,1.70
2023-05-21T14:46:20.700Z,2.10
2023-05-21T14:48:47.304Z,2.00
2023-05-21T14:51:14.789Z,1.87
2023-05-21T14:53:41.405Z,2.60
2023-05-21T14:56:08.093Z,2.07
2023-05-21T14:58:34.972Z,2.20
2023-05-21T15:01:02.503Z,2.13
2023-05-21T15:03:29.179Z,2.23
2023-05-21T15:05:55.979Z,2.20
2023-05-21T15:08:22.688Z,2.23
2023-05-21T15:10:50.993Z,2.20
2023-05-21T15:13:17.455Z,2.17
2023-05-21T15:15:44.409Z,1.57
2023-05-21T15:18:11.769Z,2.37
2023-05-21T15:20:38.288Z,2.40
2023-05-21T15:23:16.142Z,2.20
2023-05-21T15:25:43.658Z,2.03
2023-05-21T15:28:11.903Z,1.93
2023-05-21T15:30:38.438Z,2.07
2023-05-21T15:33:04.896Z,2.10
2023-05-21T15:35:31.547Z,2.00
2023-05-21T15:37:58.194Z,2.00
2023-05-21T15:40:26.890Z,1.80
2023-05-21T15:42:53.841Z,1.90
2023-05-21T15:45:20.429Z,2.53
2023-05-21T15:47:48.081Z,2.20
2023-05-21T15:50:14.754Z,2.20
2023-05-21T15:52:42.160Z,2.07
2023-05-21T15:55:11.087Z,2.43
2023-05-21T15:57:37.551Z,2.27
2023-05-21T16:00:05.029Z,2.50
2023-05-21T16:02:31.667Z,1.97
2023-05-21T16:04:58.278Z,2.37
2023-05-21T16:07:24.735Z,3.13
2023-05-21T16:09:51.255Z,2.27
2023-05-21T16:12:17.925Z,1.67
2023-05-21T16:14:49.803Z,2.53
2023-05-21T16:17:16.552Z,2.07
2023-05-21T16:19:43.026Z,2.73
2023-05-21T16:22:10.769Z,2.07
2023-05-21T16:24:38.162Z,2.40
2023-05-21T16:27:05.032Z,1.87
2023-05-21T16:29:31.862Z,2.17
2023-05-21T16:31:58.421Z,2.33
2023-05-21T16:34:24.872Z,1.60
2023-05-21T16:36:51.732Z,2.37
2023-05-21T16:39:18.380Z,2.50
2023-05-21T16:41:44.830Z,2.30
2023-05-21T16:44:11.577Z,2.57
2023-05-21T16:46:38.257Z,2.53
2023-05-21T16:49:04.826Z,2.20
2023-05-21T16:51:31.527Z,2.13
2023-05-21T16:53:58.145Z,2.10
2023-05-21T16:56:24.737Z,2.60
2023-05-21T16:58:51.196Z,2.60
2023-05-21T17:01:17.773Z,2.40
2023-05-21T17:03:44.485Z,2.40
2023-05-21T17:06:11.193Z,2.53
2023-05-21T17:08:37.618Z,2.53
2023-05-21T17:11:04.166Z,2.40
2023-05-21T17:13:30.749Z,2.53
2023-05-21T17:15:57.337Z,2.23
2023-05-21T17:18:23.918Z,2.43
2023-05-21T17:20:50.598Z,2.30
2023-05-21T17:23:17.242Z,2.13
2023-05-21T17:25:43.844Z,2.50
2023-05-21T17:28:11.148Z,2.67
2023-05-21T17:30:37.706Z,2.60
2023-05-21T17:33:04.214Z,2.63
2023-05-21T17:35:30.870Z,2.57
2023-05-21T17:37:57.413Z,2.77
2023-05-21T17:40:24.522Z,2.67
2023-05-21T17:42:52.135Z,2.17
2023-05-21T17:45:18.746Z,2.37
2023-05-21T17:47:45.293Z,2.40
2023-05-21T17:50:11.807Z,2.80
2023-05-21T17:52:38.291Z,3.20
2023-05-21T17:55:05.384Z,2.50
2023-05-21T17:57:31.961Z,2.70
2023-05-21T17:59:58.560Z,2.40
2023-05-21T18:02:26.003Z,2.63
2023-05-21T18:04:52.629Z,2.67
2023-05-21T18:07:19.154Z,2.60
2023-05-21T18:09:45.694Z,2.13
2023-05-21T18:12:12.225Z,2.20
2023-05-21T18:14:38.652Z,2.50
2023-05-21T18:17:05.932Z,2.60
2023-05-21T18:19:32.766Z,2.33
2023-05-21T18:21:59.325Z,2.33
2023-05-21T18:24:25.817Z,2.40
2023-05-21T18:26:52.333Z,2.10
2023-05-21T18:29:18.891Z,2.17
2023-05-21T18:31:45.595Z,2.80
2023-05-21T18:34:12.255Z,2.53
2023-05-21T18:36:39.115Z,2.43
2023-05-21T18:39:07.282Z,2.57
2023-05-21T18:41:33.985Z,2.57
2023-05-21T18:44:03.395Z,2.20
2023-05-21T18:46:29.982Z,2.80
2023-05-21T18:48:56.628Z,2.10
2023-05-21T18:51:23.418Z,2.47
2023-05-21T18:53:49.844Z,2.73
2023-05-21T18:56:17.762Z,2.43
2023-05-21T18:58:44.411Z,2.40
2023-05-21T19:01:10.991Z,2.97
2023-05-21T19:03:38.389Z,2.60
2023-05-21T19:06:05.043Z,2.37
2023-05-21T19:08:31.697Z,2.40
2023-05-21T19:10:58.282Z,2.80
2023-05-21T19:13:26.081Z,3.00
2023-05-21T19:15:52.512Z,2.40
2023-05-21T19:18:19.055Z,2.87
2023-05-21T19:20:45.776Z,2.43
2023-05-21T19:23:12.440Z,2.20
2023-05-21T19:25:39.063Z,2.90
2023-05-21T19:28:05.761Z,2.57
2023-05-21T19:30:34.898Z,2.93
2023-05-21T19:33:02.007Z,3.17
2023-05-21T19:35:28.632Z,2.83
2023-05-21T19:37:58.983Z,2.43
2023-05-21T19:40:26.109Z,2.27
2023-05-21T19:42:52.652Z,2.93
2023-05-21T19:45:21.377Z,2.87
2023-05-21T19:47:48.735Z,3.10
2023-05-21T19:50:15.525Z,2.50
2023-05-21T19:52:42.274Z,2.60
2023-05-21T19:55:11.197Z,2.50
2023-05-21T19:57:37.966Z,2.47
2023-05-21T20:00:05.499Z,3.73
2023-05-21T20:02:32.043Z,2.80
2023-05-21T20:04:59.200Z,3.00
2023-05-21T20:07:25.958Z,3.47
2023-05-21T20:09:52.740Z,3.10
2023-05-21T20:12:19.552Z,2.87
2023-05-21T20:14:48.665Z,2.90
2023-05-21T20:17:18.836Z,3.30
2023-05-21T20:19:48.703Z,2.97
2023-05-21T20:22:16.042Z,3.47
2023-05-21T20:24:43.479Z,3.53
2023-05-21T20:27:10.143Z,3.87
2023-05-21T20:29:36.772Z,3.27
2023-05-21T20:32:03.360Z,3.20
2023-05-21T20:34:29.993Z,3.33
2023-05-21T20:37:00.016Z,3.13
2023-05-21T20:39:29.831Z,3.17
2023-05-21T20:41:56.480Z,3.80
2023-05-21T20:44:23.023Z,3.40
2023-05-21T20:46:49.841Z,3.07
2023-05-21T20:49:17.538Z,2.93
2023-05-21T20:51:44.343Z,3.47
2023-05-21T20:54:11.615Z,3.83
2023-05-21T20:56:42.534Z,3.53
2023-05-21T20:59:11.148Z,3.23
2023-05-21T21:01:38.444Z,3.60
2023-05-21T21:04:05.263Z,3.60
2023-05-21T21:06:31.979Z,3.17
2023-05-21T21:08:58.755Z,4.27
2023-05-21T21:11:26.674Z,3.60
2023-05-21T21:13:53.325Z,3.70
2023-05-21T21:16:19.823Z,3.90
2023-05-21T21:18:47.097Z,3.93
2023-05-21T21:21:13.856Z,3.73
2023-05-21T21:23:40.499Z,3.87
2023-05-21T21:26:07.138Z,4.00
2023-05-21T21:28:33.756Z,2.87
2023-05-21T21:31:00.524Z,3.73
2023-05-21T21:33:27.083Z,4.00
2023-05-21T21:35:53.608Z,4.10
2023-05-21T21:38:20.048Z,4.23
2023-05-21T21:40:46.524Z,3.80
2023-05-21T21:43:13.081Z,4.17
2023-05-21T21:45:39.644Z,3.93
2023-05-21T21:48:06.760Z,3.77
2023-05-21T21:50:33.274Z,4.07
2023-05-21T21:52:59.921Z,3.70
2023-05-21T21:55:26.481Z,3.17
2023-05-21T21:57:53.119Z,3.33
2023-05-21T22:00:22.249Z,3.83
2023-05-21T22:02:48.718Z,3.50
2023-05-21T22:05:17.356Z,3.40
2023-05-21T22:07:47.161Z,2.93
2023-05-21T22:10:17.303Z,4.03
2023-05-21T22:12:44.663Z,3.40
2023-05-21T22:15:18.728Z,3.97
2023-05-21T22:17:48.323Z,3.20
2023-05-21T22:20:15.074Z,3.30
2023-05-21T22:22:41.601Z,3.60
2023-05-21T22:25:08.385Z,3.70
2023-05-21T22:27:34.834Z,3.60
2023-05-21T22:30:01.315Z,3.63
2023-05-21T22:32:27.845Z,3.60
2023-05-21T22:34:54.297Z,3.43
2023-05-21T22:37:21.173Z,3.90
2023-05-21T22:39:47.593Z,3.53
2023-05-21T22:42:14.086Z,3.03
2023-05-21T22:44:40.879Z,3.53
2023-05-21T22:47:09.356Z,3.13
2023-05-21T22:49:38.088Z,3.47
2023-05-21T22:52:06.290Z,3.37
2023-05-21T22:54:33.057Z,3.17
2023-05-21T22:57:01.140Z,3.07
2023-05-21T22:59:32.299Z,3.67
2023-05-21T23:01:59.275Z,3.30
2023-05-21T23:04:42.734Z,3.17
2023-05-21T23:07:10.228Z,2.87
2023-05-21T23:09:36.789Z,3.73
2023-05-21T23:12:03.773Z,3.60
2023-05-21T23:14:30.444Z,3.57
2023-05-21T23:17:01.783Z,3.57
2023-05-21T23:19:29.557Z,3.03
2023-05-21T23:21:56.410Z,3.63
2023-05-21T23:24:22.988Z,4.20
2023-05-21T23:26:49.441Z,4.47
2023-05-21T23:29:15.945Z,3.67
2023-05-21T23:31:42.751Z,3.53
2023-05-21T23:34:09.586Z,3.77
2023-05-21T23:36:36.175Z,3.13
2023-05-21T23:39:02.775Z,3.17
2023-05-21T23:41:29.491Z,3.53
2023-05-21T23:43:56.047Z,3.10
2023-05-21T23:46:22.833Z,3.47
2023-05-21T23:48:49.567Z,3.33
2023-05-21T23:51:16.237Z,3.40
2023-05-21T23:53:42.757Z,3.13
2023-05-21T23:56:09.238Z,3.90
2023-05-21T23:58:35.953Z,3.53
